Tuesday, June 28, 2016, 12:50 PM EDT

KRIC, Richmond International Airport

Location: Sandston, VA, United States Lat: 37.517
Local Time: 12:50 PM EDT (16:50 GMT) Lon: -77.317
Time Zone: US/Eastern Elev: 167 ft

Show me the last for .
Show Decoded

2016-06-28 11:54 METAR KRIC 281554Z 22009KT 6SM BR BKN010 OVC049 24/23 A2995 RMK AO2 RAE30 SLP146
                 P0000 T02440228 =
2016-06-28 10:54 METAR KRIC 281454Z 24007KT 5SM -RA BR FEW008 BKN011 OVC090 24/22 A2996 RMK AO2
                 SLP148 P0000 60000 T02390222 51004 =
2016-06-28 09:54 METAR KRIC 281354Z 22007KT 5SM -RA BR SCT008 OVC120 23/22 A2995 RMK AO2 RAB23
                 SLP146 P0000 T02330222 =
2016-06-28 08:54 METAR KRIC 281254Z 20005KT 3SM BR FEW006 SCT090 BKN120 23/22 A2996 RMK AO2
                 SLP147 T02280222 =
2016-06-28 07:54 METAR KRIC 281154Z 19004KT 3SM BR FEW005 BKN085 OVC120 22/22 A2995 RMK AO2
                 RAB29E52 SLP144 P0000 60033 70037 T02220217 10228 20217 55002 =
2016-06-28 06:54 METAR KRIC 281054Z 19003KT 5SM BR FEW009 BKN080 OVC150 22/21 A2994 RMK AO2 RAE17
                 SLP140 P0001 T02170211 =
2016-06-28 05:54 METAR KRIC 280954Z 18003KT 5SM -RA BR FEW045 BKN090 OVC120 22/21 A2993 RMK AO2
                 SLP139 P0030 T02170206 =
2016-06-28 05:29 METAR KRIC 280929Z 19007KT 3SM RA BR BKN040 OVC095 22/21 A2994 RMK AO2 P0028
                 T02170206 =
2016-06-28 05:22 METAR KRIC 280922Z 17008KT 2SM +RA BR FEW020 BKN035 OVC090 22/21 A2993 RMK AO2
                 P0027 T02170211 =
2016-06-28 05:07 METAR KRIC 280907Z 24010KT 1SM R34/P6000FT +RA BR BKN035 OVC050 22/22 A2995 RMK
                 AO2 P0009 T02220217 =
2016-06-28 04:57 METAR KRIC 280857Z 22006KT 1 3/4SM +RA BR SCT039 BKN050 OVC100 22/21 A2995 =
2016-06-28 04:54 METAR KRIC 280854Z 21007KT 5SM RA BR BKN035 OVC100 22/21 A2995 RMK AO2 RAB51
                 SLP145 P0002 60002 T02220211 55000 =
2016-06-28 03:54 METAR KRIC 280754Z 17003KT 7SM SCT037 OVC140 22/21 A2994 RMK AO2 SLP140
                 T02220211 =
2016-06-28 02:54 METAR KRIC 280654Z 15003KT 5SM BR BKN047 OVC150 22/21 A2995 RMK AO2 SLP144
                 T02220211 =
2016-06-28 01:54 METAR KRIC 280554Z 15004KT 7SM BKN050 OVC090 23/22 A2995 RMK AO2 SLP146 60004
                 T02280217 10267 20228 58008 =
2016-06-28 00:54 METAR KRIC 280454Z 11004KT 7SM BKN044 OVC095 23/22 A2998 RMK AO2 RAE51 SLP154
                 P0004 T02330222 403000172 =
2016-06-27 23:54 METAR KRIC 280354Z 06005KT 8SM -RA OVC044 24/22 A2997 RMK AO2 SLP152 P0000
                 T02440217 =
2016-06-27 22:54 METAR KRIC 280254Z 18006KT 10SM -RA OVC045 26/21 A2998 RMK AO2 RAB43 SLP155 OCNL
                 LTGIC DSNT N P0000 60000 T02560211 55001 =
2016-06-27 21:54 METAR KRIC 280154Z 16007KT 10SM OVC047 26/21 A2998 RMK AO2 SLP154 T02610211 =
2016-06-27 20:54 METAR KRIC 280054Z 16005KT 10SM BKN046 OVC130 26/22 A2998 RMK AO2 SLP155
                 T02610217 =
2016-06-27 19:54 METAR KRIC 272354Z 17004KT 10SM FEW044 SCT130 OVC250 27/22 A2998 RMK AO2 SLP155
                 T02670217 10300 20267 53001 =
2016-06-27 18:54 METAR KRIC 272254Z 15005KT 10SM FEW047 FEW200 BKN250 28/21 A2997 RMK AO2 SLP151
                 T02780211 =
2016-06-27 17:54 METAR KRIC 272154Z 18006KT 10SM FEW047 FEW200 BKN250 29/21 A2997 RMK AO2 SLP151
                 T02890206 =
2016-06-27 16:54 METAR KRIC 272054Z 22006KT 10SM SCT044 BKN250 29/20 A2998 RMK AO2 SLP154
                 T02940200 56019 =
2016-06-27 15:54 METAR KRIC 271954Z 21011G15KT 10SM SCT060 BKN250 30/20 A2999 RMK AO2 SLP160
                 T03000200 =
2016-06-27 14:54 METAR KRIC 271854Z 15006KT 10SM SCT050 SCT250 29/19 A3002 RMK AO2 SLP168
                 T02940194 =
2016-06-27 13:54 METAR KRIC 271754Z 19009KT 10SM FEW050 SCT250 29/19 A3003 RMK AO2 SLP174
                 T02890189 10289 20183 58022 =
2016-06-27 12:54 METAR KRIC 271654Z 21007KT 10SM FEW050 SCT250 28/18 A3006 RMK AO2 SLP184
                 T02830183 =

Support USWX by starting your Amazon purchase here.